Accueil
METAR-TAF:

METAR-TAF

Aéroports :

Durant, Oklahoma, États-Unis

latitude: 33-56-32N, longitude: 096-23-40W, altitude: 213 m

Observation

Le bulletin a été fait il y a 14 minutes, à 17:15 UTC
Vent 7 kt de sud/sud-est
Température 23°C
Humidité 73%
Pression 1017 hPa
Visibilité: 16.1 km
Nuages épars à une hauteur de 12000 ft

METAR: KDUA 201715Z AUTO 15007KT 10SM SCT120 23/18 A3003 RMK AO2

Heure: 12:29 (17:29 UTC)


TAF: absent

Observations et prévisions météorologiques de plus de 4000 aéroports (messages METAR et TAF).

Les stations disponibles sont représentées par des disques jaunes et rouges sur la carte.

Passer la souris dessus pour voir le nom de la station.

Cliquer dessus pour voir les observations et prévisions météorologiques.

Pour changer de carte: cliquez sur les boutons verts avec une croix noire pour zoomer, sur le bouton vert avec un tiret pour effectuer un zoom arrière, ou sur les flèches vertes pour les cartes adjacentes.


METAR-TAF: